^^
Your Local Weather - Clay, NY Station Historical Data
Daily Summary for January 1, 2017 Units:  English    Metric   Both
« Previous Day
Next Day »
Daily Weekly Monthly Yearly Custom
  High: Low: Average:
Temperature: 40.1 °F 22.9 °F 32.7 °F
Dew Point: 32.6 °F 19.1 °F 23.2 °F
Humidity: 86% 49% 69%
Wind Speed: 6.0mph 0.0mph 2.5mph
Wind Gust: 14.0mph - -
Wind- - WSW
Pressure: 30.36 in 29.69 in -
Precipitation: 0.10 in    
Historical Graphs
 
 
Tabular Data for January 1, 2017
Time Temperature Dew Point Pressure Wind Wind Speed Wind Gust Humidity Rainfall Rate (Hourly) solar
00:06 37.0 °F 32.3 °F 29.69 in SSW 4.0 mph 4.0 mph 83% 0.04 in 0 W/m2
00:12 37.0 °F 32.3 °F 29.69 in SSW 3.0 mph 4.0 mph 83% 0.00 in 0 W/m2
00:18 37.2 °F 32.2 °F 29.69 in SSW 4.0 mph 5.0 mph 82% 0.00 in 0 W/m2
00:24 37.5 °F 32.2 °F 29.69 in WSW 4.0 mph 6.0 mph 81% 0.00 in 0 W/m2
00:30 37.7 °F 32.4 °F 29.69 in SW 4.0 mph 4.0 mph 81% 0.00 in 0 W/m2
00:35 37.9 °F 32.3 °F 29.69 in SSW 4.0 mph 4.0 mph 80% 0.00 in 0 W/m2
00:42 37.9 °F 32.3 °F 29.69 in SW 4.0 mph 4.0 mph 80% 0.00 in 0 W/m2
00:48 37.9 °F 32.3 °F 29.69 in WSW 4.0 mph 5.0 mph 80% 0.00 in 0 W/m2
00:54 38.0 °F 32.4 °F 29.70 in SW 4.0 mph 4.0 mph 80% 0.00 in 0 W/m2
01:00 38.1 °F 32.2 °F 29.70 in SW 4.0 mph 5.0 mph 79% 0.00 in 0 W/m2
01:06 38.3 °F 32.4 °F 29.70 in SW 4.0 mph 5.0 mph 79% 0.00 in 0 W/m2
01:12 38.5 °F 32.6 °F 29.70 in WSW 5.0 mph 6.0 mph 79% 0.00 in 0 W/m2
01:18 38.5 °F 32.6 °F 29.71 in SW 4.0 mph 6.0 mph 79% 0.05 in 0 W/m2
01:24 38.0 °F 32.4 °F 29.74 in NW 4.0 mph 11.0 mph 80% 0.05 in 0 W/m2
01:30 36.7 °F 31.7 °F 29.75 in WNW 6.0 mph 6.0 mph 82% 0.05 in 0 W/m2
01:36 36.1 °F 31.1 °F 29.76 in WNW 5.0 mph 7.0 mph 82% 0.05 in 0 W/m2
01:42 35.7 °F 30.7 °F 29.76 in West 4.0 mph 4.0 mph 82% 0.04 in 0 W/m2
01:48 35.5 °F 30.8 °F 29.77 in West 4.0 mph 4.0 mph 83% 0.00 in 0 W/m2
01:54 35.4 °F 30.5 °F 29.78 in WSW 4.0 mph 5.0 mph 82% 0.00 in 0 W/m2
02:00 35.2 °F 30.3 °F 29.79 in WNW 4.0 mph 4.0 mph 82% 0.00 in 0 W/m2
02:06 35.1 °F 29.9 °F 29.79 in West 4.0 mph 6.0 mph 81% 0.00 in 0 W/m2
02:12 35.1 °F 29.6 °F 29.80 in WNW 4.0 mph 7.0 mph 80% 0.00 in 0 W/m2
02:18 35.3 °F 28.8 °F 29.81 in WNW 4.0 mph 7.0 mph 77% 0.00 in 0 W/m2
02:24 35.5 °F 28.7 °F 29.81 in WNW 5.0 mph 6.0 mph 76% 0.00 in 0 W/m2
02:30 35.5 °F 28.4 °F 29.82 in NW 4.0 mph 4.0 mph 75% 0.00 in 0 W/m2
02:36 35.5 °F 28.7 °F 29.82 in WNW 4.0 mph 6.0 mph 76% 0.00 in 0 W/m2
02:42 35.5 °F 28.4 °F 29.82 in NW 4.0 mph 7.0 mph 75% 0.00 in 0 W/m2
02:48 35.5 °F 28.4 °F 29.83 in West 4.0 mph 7.0 mph 75% 0.00 in 0 W/m2
02:54 35.5 °F 28.0 °F 29.83 in West 4.0 mph 9.0 mph 74% 0.00 in 0 W/m2
03:00 35.5 °F 27.7 °F 29.83 in WNW 5.0 mph 6.0 mph 73% 0.00 in 0 W/m2
03:06 35.6 °F 27.1 °F 29.84 in SW 5.0 mph 6.0 mph 71% 0.00 in 0 W/m2
03:12 35.6 °F 26.8 °F 29.84 in West 5.0 mph 6.0 mph 70% 0.00 in 0 W/m2
03:18 35.5 °F 26.7 °F 29.85 in West 5.0 mph 7.0 mph 70% 0.00 in 0 W/m2
03:24 35.4 °F 26.2 °F 29.85 in West 5.0 mph 9.0 mph 69% 0.00 in 0 W/m2
03:30 35.5 °F 25.6 °F 29.85 in WNW 6.0 mph 6.0 mph 67% 0.00 in 0 W/m2
03:36 35.3 °F 25.4 °F 29.86 in West 6.0 mph 9.0 mph 67% 0.00 in 0 W/m2
03:42 35.3 °F 24.7 °F 29.87 in WNW 6.0 mph 7.0 mph 65% 0.00 in 0 W/m2
03:48 35.2 °F 24.6 °F 29.87 in West 5.0 mph 7.0 mph 65% 0.00 in 0 W/m2
03:54 35.2 °F 24.2 °F 29.87 in WNW 5.0 mph 14.0 mph 64% 0.00 in 0 W/m2
04:00 35.1 °F 24.1 °F 29.87 in WNW 4.0 mph 4.0 mph 64% 0.00 in 0 W/m2
04:06 35.1 °F 23.8 °F 29.88 in SW 5.0 mph 8.0 mph 63% 0.00 in 0 W/m2
04:12 35.0 °F 23.7 °F 29.88 in West 5.0 mph 5.0 mph 63% 0.00 in 0 W/m2
04:18 34.9 °F 23.6 °F 29.89 in SW 5.0 mph 11.0 mph 63% 0.00 in 0 W/m2
04:24 34.8 °F 23.5 °F 29.89 in West 4.0 mph 7.0 mph 63% 0.00 in 0 W/m2
04:30 34.8 °F 23.1 °F 29.90 in West 5.0 mph 5.0 mph 62% 0.00 in 0 W/m2
04:36 34.8 °F 22.7 °F 29.90 in WNW 5.0 mph 8.0 mph 61% 0.00 in 0 W/m2
04:42 34.8 °F 23.1 °F 29.91 in West 5.0 mph 5.0 mph 62% 0.00 in 0 W/m2
04:48 34.8 °F 22.7 °F 29.91 in West 5.0 mph 9.0 mph 61% 0.00 in 0 W/m2
04:54 34.8 °F 23.1 °F 29.92 in WNW 6.0 mph 11.0 mph 62% 0.00 in 0 W/m2
05:00 34.6 °F 22.9 °F 29.92 in NW 6.0 mph 10.0 mph 62% 0.00 in 0 W/m2
05:06 34.6 °F 22.9 °F 29.93 in West 5.0 mph 10.0 mph 62% 0.00 in 0 W/m2
05:12 34.5 °F 23.2 °F 29.93 in WSW 5.0 mph 6.0 mph 63% 0.00 in 0 W/m2
05:18 34.4 °F 23.1 °F 29.94 in SW 5.0 mph 6.0 mph 63% 0.00 in 0 W/m2
05:24 34.3 °F 23.0 °F 29.94 in West 4.0 mph 10.0 mph 63% 0.00 in 0 W/m2
05:30 34.3 °F 23.0 °F 29.94 in NW 5.0 mph 5.0 mph 63% 0.00 in 0 W/m2
05:36 34.3 °F 23.0 °F 29.94 in West 6.0 mph 6.0 mph 63% 0.00 in 0 W/m2
05:42 34.2 °F 22.9 °F 29.94 in West 5.0 mph 5.0 mph 63% 0.00 in 0 W/m2
05:48 34.2 °F 22.9 °F 29.94 in WSW 5.0 mph 8.0 mph 63% 0.00 in 0 W/m2
05:54 34.1 °F 23.2 °F 29.95 in WSW 4.0 mph 5.0 mph 64% 0.00 in 0 W/m2
06:00 34.1 °F 22.8 °F 29.95 in WSW 4.0 mph 4.0 mph 63% 0.00 in 0 W/m2
06:06 34.1 °F 22.4 °F 29.96 in WSW 5.0 mph 10.0 mph 62% 0.00 in 0 W/m2
06:12 34.1 °F 22.4 °F 29.96 in WSW 6.0 mph 6.0 mph 62% 0.00 in 0 W/m2
06:18 34.1 °F 22.4 °F 29.96 in WSW 4.0 mph 7.0 mph 62% 0.00 in 0 W/m2
06:24 34.1 °F 22.4 °F 29.96 in West 5.0 mph 10.0 mph 62% 0.00 in 0 W/m2
06:30 34.1 °F 22.8 °F 29.97 in West 5.0 mph 7.0 mph 63% 0.00 in 0 W/m2
06:36 34.0 °F 22.3 °F 29.97 in SW 4.0 mph 7.0 mph 62% 0.00 in 0 W/m2
06:42 34.0 °F 22.3 °F 29.98 in WSW 4.0 mph 6.0 mph 62% 0.00 in 0 W/m2
06:48 34.0 °F 22.7 °F 29.98 in West 3.0 mph 6.0 mph 63% 0.00 in 0 W/m2
06:54 33.9 °F 22.2 °F 29.99 in WSW 2.0 mph 4.0 mph 62% 0.00 in 0 W/m2
07:00 33.8 °F 22.5 °F 29.99 in West 3.0 mph 6.0 mph 63% 0.00 in 0 W/m2
07:06 33.9 °F 22.6 °F 30.00 in WNW 4.0 mph 6.0 mph 63% 0.00 in 0 W/m2
07:12 33.8 °F 22.1 °F 30.00 in West 3.0 mph 9.0 mph 62% 0.00 in 0 W/m2
07:18 33.7 °F 22.4 °F 30.01 in WSW 3.0 mph 9.0 mph 63% 0.00 in 0 W/m2
07:24 33.7 °F 22.4 °F 30.01 in WSW 4.0 mph 6.0 mph 63% 0.00 in 0 W/m2
07:30 33.7 °F 22.4 °F 30.02 in West 3.0 mph 3.0 mph 63% 0.00 in 0 W/m2
07:36 33.7 °F 22.4 °F 30.02 in West 4.0 mph 9.0 mph 63% 0.00 in 0 W/m2
07:42 33.6 °F 22.3 °F 30.03 in WSW 5.0 mph 5.0 mph 63% 0.00 in 0 W/m2
07:48 33.6 °F 22.3 °F 30.04 in West 4.0 mph 6.0 mph 63% 0.00 in 0 W/m2
07:54 33.6 °F 22.3 °F 30.04 in WSW 3.0 mph 5.0 mph 63% 0.00 in 0 W/m2
08:00 33.6 °F 22.3 °F 30.04 in West 4.0 mph 4.0 mph 63% 0.00 in 5 W/m2
08:06 33.5 °F 22.2 °F 30.05 in WSW 3.0 mph 4.0 mph 63% 0.00 in 5 W/m2
08:12 33.4 °F 22.5 °F 30.05 in SW 3.0 mph 6.0 mph 64% 0.00 in 9 W/m2
08:18 33.3 °F 22.1 °F 30.06 in NW 3.0 mph 6.0 mph 63% 0.00 in 7 W/m2
08:24 33.2 °F 22.0 °F 30.06 in SW 4.0 mph 6.0 mph 63% 0.00 in 12 W/m2
08:30 33.2 °F 22.0 °F 30.07 in SSW 4.0 mph 7.0 mph 63% 0.00 in 14 W/m2
08:36 33.1 °F 22.2 °F 30.07 in SW 3.0 mph 7.0 mph 64% 0.00 in 19 W/m2
08:42 33.0 °F 22.1 °F 30.08 in WSW 3.0 mph 5.0 mph 64% 0.00 in 21 W/m2
08:48 33.0 °F 22.1 °F 30.08 in NW 3.0 mph 7.0 mph 64% 0.00 in 30 W/m2
08:54 32.9 °F 22.0 °F 30.08 in WSW 4.0 mph 4.0 mph 64% 0.00 in 39 W/m2
09:00 32.9 °F 22.0 °F 30.08 in WSW 3.0 mph 4.0 mph 64% 0.00 in 33 W/m2
09:06 32.8 °F 22.0 °F 30.09 in WSW 3.0 mph 4.0 mph 64% 0.00 in 47 W/m2
09:12 32.8 °F 22.0 °F 30.10 in West 4.0 mph 9.0 mph 64% 0.00 in 46 W/m2
09:18 32.9 °F 22.4 °F 30.10 in WSW 5.0 mph 9.0 mph 65% 0.00 in 42 W/m2
09:24 32.8 °F 22.3 °F 30.10 in SSW 4.0 mph 5.0 mph 65% 0.00 in 56 W/m2
09:30 32.8 °F 22.3 °F 30.10 in West 4.0 mph 4.0 mph 65% 0.00 in 44 W/m2
09:36 32.9 °F 22.0 °F 30.11 in West 4.0 mph 10.0 mph 64% 0.00 in 72 W/m2
09:42 33.0 °F 22.1 °F 30.11 in WNW 5.0 mph 8.0 mph 64% 0.00 in 91 W/m2
09:48 33.1 °F 22.2 °F 30.12 in West 4.0 mph 8.0 mph 64% 0.00 in 83 W/m2
09:56 33.2 °F 22.3 °F 30.13 in WSW 3.0 mph 10.0 mph 64% 0.00 in 77 W/m2
10:02 33.4 °F 22.1 °F 30.13 in WSW 3.0 mph 6.0 mph 63% 0.00 in 100 W/m2
10:08 33.5 °F 22.2 °F 30.13 in West 3.0 mph 6.0 mph 63% 0.00 in 104 W/m2
10:14 33.7 °F 22.4 °F 30.13 in WSW 3.0 mph 5.0 mph 63% 0.00 in 114 W/m2
10:20 33.8 °F 22.5 °F 30.14 in West 4.0 mph 9.0 mph 63% 0.00 in 88 W/m2
10:26 33.8 °F 22.5 °F 30.15 in WNW 4.0 mph 9.0 mph 63% 0.00 in 104 W/m2
10:32 33.9 °F 22.6 °F 30.15 in WSW 3.0 mph 4.0 mph 63% 0.00 in 95 W/m2
10:38 34.1 °F 22.8 °F 30.15 in West 2.0 mph 4.0 mph 63% 0.00 in 98 W/m2
10:44 34.2 °F 22.9 °F 30.15 in WNW 3.0 mph 3.0 mph 63% 0.00 in 120 W/m2
10:50 34.4 °F 23.1 °F 30.15 in WSW 3.0 mph 3.0 mph 63% 0.00 in 142 W/m2
10:56 34.6 °F 23.3 °F 30.16 in West 3.0 mph 8.0 mph 63% 0.00 in 178 W/m2
11:02 34.8 °F 23.1 °F 30.16 in West 4.0 mph 6.0 mph 62% 0.00 in 195 W/m2
11:08 35.0 °F 23.3 °F 30.16 in West 4.0 mph 6.0 mph 62% 0.00 in 200 W/m2
11:14 35.3 °F 23.6 °F 30.16 in West 4.0 mph 5.0 mph 62% 0.00 in 248 W/m2
11:20 35.6 °F 23.5 °F 30.16 in West 4.0 mph 4.0 mph 61% 0.00 in 236 W/m2
11:26 36.3 °F 23.7 °F 30.16 in WNW 4.0 mph 6.0 mph 60% 0.00 in 497 W/m2
11:32 36.7 °F 23.3 °F 30.16 in West 4.0 mph 4.0 mph 58% 0.00 in 468 W/m2
11:38 36.7 °F 23.7 °F 30.16 in WSW 5.0 mph 6.0 mph 59% 0.00 in 448 W/m2
11:44 37.3 °F 23.4 °F 30.16 in West 4.0 mph 5.0 mph 57% 0.00 in 434 W/m2
11:50 37.5 °F 23.6 °F 30.16 in NW 3.0 mph 4.0 mph 57% 0.00 in 432 W/m2
11:56 37.7 °F 23.4 °F 30.16 in WSW 3.0 mph 4.0 mph 56% 0.00 in 432 W/m2
12:02 37.9 °F 24.0 °F 30.16 in SW 3.0 mph 3.0 mph 57% 0.00 in 432 W/m2
12:08 38.4 °F 24.5 °F 30.16 in WSW 3.0 mph 5.0 mph 57% 0.00 in 434 W/m2
12:14 38.0 °F 23.7 °F 30.16 in WNW 3.0 mph 5.0 mph 56% 0.00 in 434 W/m2
12:20 38.0 °F 23.3 °F 30.15 in WNW 4.0 mph 4.0 mph 55% 0.00 in 432 W/m2
12:26 38.6 °F 24.2 °F 30.15 in NW 3.0 mph 4.0 mph 56% 0.00 in 434 W/m2
12:32 38.4 °F 24.1 °F 30.16 in West 3.0 mph 4.0 mph 56% 0.00 in 431 W/m2
12:38 38.2 °F 23.4 °F 30.15 in SW 4.0 mph 9.0 mph 55% 0.00 in 429 W/m2
12:44 38.5 °F 23.3 °F 30.15 in SW 4.0 mph 4.0 mph 54% 0.00 in 425 W/m2
12:50 38.8 °F 23.6 °F 30.15 in West 3.0 mph 3.0 mph 54% 0.00 in 425 W/m2
12:56 38.4 °F 23.6 °F 30.15 in WSW 3.0 mph 4.0 mph 55% 0.00 in 420 W/m2
13:02 38.6 °F 23.4 °F 30.15 in SW 3.0 mph 4.0 mph 54% 0.00 in 418 W/m2
13:08 38.4 °F 23.2 °F 30.16 in SW 3.0 mph 4.0 mph 54% 0.00 in 425 W/m2
13:14 38.5 °F 23.3 °F 30.16 in WNW 3.0 mph 4.0 mph 54% 0.00 in 425 W/m2
13:20 39.3 °F 23.1 °F 30.16 in West 3.0 mph 3.0 mph 52% 0.00 in 496 W/m2
13:26 40.1 °F 23.4 °F 30.16 in WSW 2.0 mph 6.0 mph 51% 0.00 in 517 W/m2
13:32 39.5 °F 23.8 °F 30.16 in WSW 3.0 mph 3.0 mph 53% 0.00 in 527 W/m2
13:38 38.9 °F 23.2 °F 30.16 in SSW 4.0 mph 8.0 mph 53% 0.00 in 487 W/m2
13:44 39.4 °F 23.2 °F 30.16 in West 4.0 mph 6.0 mph 52% 0.00 in 527 W/m2
14:48 39.4 °F 21.8 °F 30.18 in WSW 2.0 mph 3.0 mph 49% 0.00 in 267 W/m2
14:54 39.2 °F 21.6 °F 30.18 in West 2.0 mph 3.0 mph 49% 0.00 in 253 W/m2
15:00 39.5 °F 22.4 °F 30.18 in West 2.0 mph 2.0 mph 50% 0.00 in 241 W/m2
15:06 39.8 °F 22.7 °F 30.19 in West 1.0 mph 3.0 mph 50% 0.00 in 227 W/m2
15:12 39.6 °F 22.0 °F 30.19 in SW 1.0 mph 2.0 mph 49% 0.00 in 214 W/m2
15:18 39.3 °F 22.2 °F 30.19 in SW 1.0 mph 2.0 mph 50% 0.00 in 200 W/m2
15:24 39.1 °F 22.0 °F 30.19 in WSW 2.0 mph 2.0 mph 50% 0.00 in 181 W/m2
15:30 39.0 °F 22.4 °F 30.20 in WSW 2.0 mph 2.0 mph 51% 0.00 in 172 W/m2
15:36 39.0 °F 21.9 °F 30.21 in WSW 2.0 mph 5.0 mph 50% 0.00 in 156 W/m2
15:42 38.8 °F 22.2 °F 30.21 in WSW 1.0 mph 2.0 mph 51% 0.00 in 135 W/m2
15:48 38.7 °F 22.1 °F 30.22 in WSW 1.0 mph 2.0 mph 51% 0.00 in 83 W/m2
15:54 38.4 °F 22.3 °F 30.22 in WSW 1.0 mph 1.0 mph 52% 0.00 in 25 W/m2
16:00 38.2 °F 22.1 °F 30.22 in Calm   4.0 mph 52% 0.00 in 21 W/m2
16:06 37.7 °F 22.1 °F 30.23 in SSW 1.0 mph 6.0 mph 53% 0.00 in 19 W/m2
16:12 37.5 °F 21.5 °F 30.24 in SW 2.0 mph 2.0 mph 52% 0.00 in 21 W/m2
16:18 37.3 °F 21.7 °F 30.24 in SW 2.0 mph 7.0 mph 53% 0.00 in 14 W/m2
16:24 37.1 °F 21.5 °F 30.24 in SW 1.0 mph 2.0 mph 53% 0.00 in 12 W/m2
16:30 36.8 °F 21.7 °F 30.24 in Calm   1.0 mph 54% 0.00 in 9 W/m2
16:36 36.5 °F 21.8 °F 30.24 in Calm   2.0 mph 55% 0.00 in 7 W/m2
16:42 36.2 °F 22.0 °F 30.25 in Calm     56% 0.00 in 5 W/m2
16:48 35.6 °F 21.9 °F 30.25 in Calm     57% 0.00 in 0 W/m2
16:54 35.1 °F 22.2 °F 30.25 in Calm     59% 0.00 in 0 W/m2
17:00 34.3 °F 22.2 °F 30.25 in Calm     61% 0.00 in 0 W/m2
17:06 33.4 °F 22.1 °F 30.25 in Calm     63% 0.00 in 0 W/m2
17:12 32.5 °F 21.7 °F 30.25 in Calm     64% 0.00 in 0 W/m2
17:18 31.7 °F 21.6 °F 30.26 in Calm     66% 0.00 in 0 W/m2
17:24 31.1 °F 21.4 °F 30.27 in Calm     67% 0.00 in 0 W/m2
17:30 30.7 °F 21.4 °F 30.27 in Calm     68% 0.00 in 0 W/m2
17:36 30.3 °F 21.3 °F 30.27 in Calm     69% 0.00 in 0 W/m2
17:42 29.9 °F 21.6 °F 30.27 in Calm     71% 0.00 in 0 W/m2
17:48 29.6 °F 21.7 °F 30.27 in Calm     72% 0.00 in 0 W/m2
17:54 29.3 °F 21.4 °F 30.27 in Calm     72% 0.00 in 0 W/m2
18:00 28.9 °F 21.3 °F 30.27 in Calm     73% 0.00 in 0 W/m2
18:06 28.4 °F 21.5 °F 30.28 in Calm     75% 0.00 in 0 W/m2
18:12 28.1 °F 21.2 °F 30.28 in Calm     75% 0.00 in 0 W/m2
18:20 27.8 °F 20.9 °F 30.29 in Calm     75% 0.00 in 0 W/m2
18:26 27.6 °F 21.0 °F 30.29 in Calm     76% 0.00 in 0 W/m2
18:32 27.4 °F 21.1 °F 30.30 in Calm     77% 0.00 in 0 W/m2
18:38 27.2 °F 20.9 °F 30.30 in Calm     77% 0.00 in 0 W/m2
18:44 27.1 °F 20.8 °F 30.30 in Calm     77% 0.00 in 0 W/m2
18:50 27.1 °F 21.2 °F 30.30 in Calm     78% 0.00 in 0 W/m2
18:56 26.9 °F 21.0 °F 30.30 in Calm     78% 0.00 in 0 W/m2
19:02 26.7 °F 20.8 °F 30.30 in Calm     78% 0.00 in 0 W/m2
19:08 26.6 °F 21.0 °F 30.30 in Calm     79% 0.00 in 0 W/m2
19:14 26.5 °F 21.5 °F 30.30 in Calm     81% 0.00 in 0 W/m2
19:20 26.3 °F 21.3 °F 30.30 in Calm     81% 0.00 in 0 W/m2
19:26 26.2 °F 21.2 °F 30.30 in Calm     81% 0.00 in 0 W/m2
19:32 26.1 °F 21.1 °F 30.30 in Calm     81% 0.00 in 0 W/m2
19:38 25.9 °F 21.2 °F 30.30 in Calm     82% 0.00 in 0 W/m2
19:44 25.8 °F 21.1 °F 30.31 in Calm     82% 0.00 in 0 W/m2
19:50 25.6 °F 20.9 °F 30.31 in Calm     82% 0.00 in 0 W/m2
19:56 25.5 °F 20.8 °F 30.31 in Calm     82% 0.00 in 0 W/m2
20:02 25.5 °F 21.3 °F 30.31 in Calm     84% 0.00 in 0 W/m2
20:08 25.3 °F 20.9 °F 30.32 in Calm     83% 0.00 in 0 W/m2
20:14 25.1 °F 20.7 °F 30.32 in Calm     83% 0.00 in 0 W/m2
20:20 25.1 °F 20.9 °F 30.33 in Calm     84% 0.00 in 0 W/m2
20:26 24.9 °F 20.5 °F 30.33 in Calm     83% 0.00 in 0 W/m2
20:32 24.9 °F 20.5 °F 30.33 in Calm     83% 0.00 in 0 W/m2
20:38 25.1 °F 20.4 °F 30.33 in Calm     82% 0.00 in 0 W/m2
20:44 25.0 °F 20.3 °F 30.33 in Calm     82% 0.00 in 0 W/m2
20:50 24.9 °F 20.5 °F 30.33 in Calm     83% 0.00 in 0 W/m2
20:56 24.7 °F 20.6 °F 30.33 in Calm     84% 0.00 in 0 W/m2
21:02 24.5 °F 20.4 °F 30.33 in Calm     84% 0.00 in 0 W/m2
21:08 24.3 °F 20.2 °F 30.34 in Calm     84% 0.00 in 0 W/m2
21:14 24.2 °F 20.1 °F 30.34 in Calm     84% 0.00 in 0 W/m2
21:20 24.1 °F 20.2 °F 30.35 in Calm     85% 0.00 in 0 W/m2
21:26 23.9 °F 19.8 °F 30.34 in Calm     84% 0.00 in 0 W/m2
21:32 23.8 °F 19.9 °F 30.33 in Calm     85% 0.00 in 0 W/m2
21:38 23.8 °F 19.9 °F 30.33 in Calm     85% 0.00 in 0 W/m2
21:44 23.7 °F 20.1 °F 30.34 in Calm     86% 0.00 in 0 W/m2
21:50 23.8 °F 19.9 °F 30.34 in Calm     85% 0.00 in 0 W/m2
21:56 23.9 °F 20.0 °F 30.34 in Calm     85% 0.00 in 0 W/m2
22:02 24.0 °F 20.1 °F 30.34 in Calm   1.0 mph 85% 0.00 in 0 W/m2
22:08 24.1 °F 20.0 °F 30.34 in Calm   1.0 mph 84% 0.00 in 0 W/m2
22:14 24.1 °F 20.0 °F 30.35 in Calm     84% 0.00 in 0 W/m2
22:20 24.0 °F 19.9 °F 30.35 in Calm     84% 0.00 in 0 W/m2
22:26 23.8 °F 19.9 °F 30.35 in Calm   1.0 mph 85% 0.00 in 0 W/m2
22:34 23.7 °F 19.9 °F 30.35 in Calm     85% 0.00 in 0 W/m2
22:40 23.6 °F 19.8 °F 30.35 in Calm     85% 0.00 in 0 W/m2
22:46 23.5 °F 19.9 °F 30.35 in Calm     86% 0.00 in 0 W/m2
22:52 23.4 °F 19.6 °F 30.35 in Calm     85% 0.00 in 0 W/m2
22:58 23.3 °F 19.5 °F 30.35 in Calm     85% 0.00 in 0 W/m2
23:04 23.1 °F 19.5 °F 30.35 in Calm     86% 0.00 in 0 W/m2
23:10 22.9 °F 19.1 °F 30.35 in Calm     85% 0.00 in 0 W/m2
23:16 23.0 °F 19.2 °F 30.35 in Calm   2.0 mph 85% 0.00 in 0 W/m2
23:22 23.0 °F 19.2 °F 30.35 in Calm     85% 0.00 in 0 W/m2
23:28 23.1 °F 19.3 °F 30.35 in Calm   1.0 mph 85% 0.00 in 0 W/m2
23:34 23.0 °F 19.2 °F 30.35 in Calm     85% 0.00 in 0 W/m2
23:40 22.9 °F 19.1 °F 30.36 in Calm     85% 0.00 in 0 W/m2
23:46 23.5 °F 19.9 °F 30.36 in ENE 1.0 mph 1.0 mph 86% 0.00 in 0 W/m2
23:52 24.0 °F 20.4 °F 30.36 in ENE 1.0 mph 2.0 mph 86% 0.00 in 0 W/m2
23:58 24.0 °F 20.1 °F 30.36 in ENE 1.0 mph 2.0 mph 85% 0.00 in 0 W/m2
Country Meadow, Clay, NY, USA
Compliments of Weather Underground - 2 mb